createdAt,value
2022-09-16T00:00:49.304Z,11.68
2022-09-16T00:03:18.124Z,13.65
2022-09-16T00:05:47.381Z,12.70
2022-09-16T00:08:15.280Z,12.85
2022-09-16T00:10:43.864Z,11.45
2022-09-16T00:13:12.627Z,12.45
2022-09-16T00:15:49.240Z,13.13
2022-09-16T00:18:16.386Z,12.15
2022-09-16T00:20:49.226Z,9.77
2022-09-16T00:23:16.991Z,10.70
2022-09-16T00:25:44.142Z,10.02
2022-09-16T00:28:11.118Z,11.90
2022-09-16T00:30:38.202Z,12.68
2022-09-16T00:33:05.519Z,12.43
2022-09-16T00:35:32.708Z,10.38
2022-09-16T00:37:59.728Z,13.32
2022-09-16T00:40:27.137Z,10.00
2022-09-16T00:42:54.250Z,10.38
2022-09-16T00:45:23.918Z,13.80
2022-09-16T00:48:01.889Z,12.30
2022-09-16T00:50:48.441Z,12.70
2022-09-16T00:53:22.901Z,10.88
2022-09-16T00:55:54.186Z,11.60
2022-09-16T00:58:31.699Z,11.13
2022-09-16T01:00:59.015Z,11.95
2022-09-16T01:03:28.023Z,11.38
2022-09-16T01:05:55.689Z,11.50
2022-09-16T01:08:22.798Z,10.57
2022-09-16T01:10:49.892Z,13.93
2022-09-16T01:13:17.127Z,13.10
2022-09-16T01:15:59.015Z,11.27
2022-09-16T01:18:51.944Z,10.63
2022-09-16T01:21:25.656Z,13.50
2022-09-16T01:24:04.157Z,11.85
2022-09-16T01:26:48.894Z,10.30
2022-09-16T01:29:53.202Z,9.48
2022-09-16T01:32:41.837Z,11.23
2022-09-16T01:35:19.250Z,10.43
2022-09-16T01:38:04.307Z,10.95
2022-09-16T01:40:54.486Z,9.55
2022-09-16T01:43:31.793Z,10.60
2022-09-16T01:46:15.559Z,12.10
2022-09-16T01:48:53.705Z,12.98
2022-09-16T01:51:20.964Z,10.50
2022-09-16T01:54:07.209Z,8.07
2022-09-16T01:56:52.955Z,10.98
2022-09-16T01:59:25.723Z,9.85
2022-09-16T02:01:59.396Z,15.35
2022-09-16T02:04:36.089Z,9.38
2022-09-16T02:07:08.531Z,9.77
2022-09-16T02:09:41.486Z,11.50
2022-09-16T02:12:14.831Z,9.40
2022-09-16T02:14:45.480Z,9.48
2022-09-16T02:17:16.630Z,12.63
2022-09-16T02:19:48.189Z,9.52
2022-09-16T02:22:35.184Z,9.57
2022-09-16T02:25:05.235Z,10.75
2022-09-16T02:27:32.877Z,10.50
2022-09-16T02:30:06.015Z,11.95
2022-09-16T02:32:37.176Z,11.07
2022-09-16T02:35:06.506Z,12.73
2022-09-16T02:37:41.103Z,11.90
2022-09-16T02:40:22.768Z,13.57
2022-09-16T02:42:50.273Z,12.65
2022-09-16T02:45:17.690Z,11.52
2022-09-16T02:48:13.198Z,11.18
2022-09-16T02:50:52.402Z,10.63
2022-09-16T02:53:35.613Z,11.27
2022-09-16T02:56:09.880Z,12.77
2022-09-16T02:58:36.949Z,10.95
2022-09-16T03:01:04.369Z,11.10
2022-09-16T03:03:31.548Z,11.23
2022-09-16T03:06:04.991Z,8.95
2022-09-16T03:08:34.021Z,10.80
2022-09-16T03:11:33.182Z,12.90
2022-09-16T03:14:09.319Z,12.15
2022-09-16T03:17:04.469Z,12.40
2022-09-16T03:19:53.437Z,11.70
2022-09-16T03:22:43.200Z,10.65
2022-09-16T03:25:30.460Z,12.10
2022-09-16T03:28:07.649Z,13.95
2022-09-16T03:30:53.625Z,12.95
2022-09-16T03:33:41.788Z,12.27
2022-09-16T03:36:12.644Z,13.88
2022-09-16T03:38:41.987Z,11.98
2022-09-16T03:41:10.584Z,12.20
2022-09-16T03:43:37.664Z,13.35
2022-09-16T03:46:11.171Z,14.50
2022-09-16T03:48:38.223Z,15.15
2022-09-16T03:51:05.448Z,14.13
2022-09-16T03:53:32.406Z,12.32
2022-09-16T03:55:59.474Z,13.90
2022-09-16T03:58:26.519Z,11.75
2022-09-16T04:00:54.111Z,12.23
2022-09-16T04:03:21.153Z,13.10
2022-09-16T04:05:57.904Z,11.70
2022-09-16T04:08:25.234Z,14.13
2022-09-16T04:10:57.485Z,12.90
2022-09-16T04:13:24.585Z,13.90
2022-09-16T04:15:52.170Z,12.00
2022-09-16T04:18:19.320Z,12.38
2022-09-16T04:20:47.930Z,11.63
2022-09-16T04:23:15.061Z,13.40
2022-09-16T04:25:42.309Z,13.25
2022-09-16T04:28:09.258Z,13.65
2022-09-16T04:30:36.825Z,14.15
2022-09-16T04:33:03.926Z,13.57
2022-09-16T04:35:31.022Z,14.52
2022-09-16T04:37:58.655Z,18.00
2022-09-16T04:40:25.757Z,13.93
2022-09-16T04:42:52.745Z,15.75
2022-09-16T04:45:20.293Z,13.95
2022-09-16T04:47:47.415Z,13.15
2022-09-16T04:50:14.512Z,12.88
2022-09-16T04:52:41.615Z,13.85
2022-09-16T04:55:09.037Z,15.60
2022-09-16T04:57:37.692Z,15.45
2022-09-16T05:00:05.148Z,20.63
2022-09-16T05:02:32.277Z,14.05
2022-09-16T05:04:59.256Z,14.52
2022-09-16T05:07:27.795Z,14.65
2022-09-16T05:09:55.000Z,13.00
2022-09-16T05:12:22.283Z,17.40
2022-09-16T05:14:49.216Z,14.93
2022-09-16T05:17:33.081Z,16.65
2022-09-16T05:20:04.120Z,13.85
2022-09-16T05:22:32.347Z,17.98
2022-09-16T05:24:59.472Z,14.07
2022-09-16T05:27:28.210Z,17.92
2022-09-16T05:29:55.365Z,13.93
2022-09-16T05:32:22.355Z,12.02
2022-09-16T05:34:50.595Z,13.95
2022-09-16T05:37:18.043Z,12.70
2022-09-16T05:39:45.237Z,14.50
2022-09-16T05:42:12.289Z,16.08
2022-09-16T05:44:39.379Z,15.88
2022-09-16T05:47:06.783Z,19.45
2022-09-16T05:49:33.763Z,17.13
2022-09-16T05:52:00.690Z,15.25
2022-09-16T05:54:28.093Z,14.13
2022-09-16T05:56:55.045Z,14.05
2022-09-16T05:59:23.950Z,16.38
2022-09-16T06:01:51.006Z,12.38
2022-09-16T06:04:18.050Z,15.88
2022-09-16T06:06:46.921Z,17.65
2022-09-16T06:09:15.859Z,13.90
2022-09-16T06:11:45.523Z,15.15
2022-09-16T06:14:13.415Z,16.60
2022-09-16T06:16:40.658Z,15.93
2022-09-16T06:19:13.297Z,16.85
2022-09-16T06:21:43.822Z,15.70
2022-09-16T06:24:12.364Z,17.35
2022-09-16T06:26:41.243Z,16.27
2022-09-16T06:29:09.565Z,15.65
2022-09-16T06:31:37.797Z,15.13
2022-09-16T06:34:05.701Z,15.00
2022-09-16T06:36:42.757Z,18.25
2022-09-16T06:39:14.015Z,16.10
2022-09-16T06:41:41.320Z,14.90
2022-09-16T06:44:08.376Z,14.88
2022-09-16T06:46:35.531Z,15.27
2022-09-16T06:49:05.743Z,18.45
2022-09-16T06:51:34.666Z,15.15
2022-09-16T06:54:04.571Z,13.75
2022-09-16T06:56:32.051Z,16.95
2022-09-16T06:58:58.994Z,19.98
2022-09-16T07:01:29.407Z,15.20
2022-09-16T07:03:58.750Z,15.65
2022-09-16T07:09:17.216Z,15.60
2022-09-16T07:11:44.121Z,14.48
2022-09-16T07:14:11.333Z,14.23
2022-09-16T07:16:38.413Z,16.15
2022-09-16T07:19:05.551Z,16.00
2022-09-16T07:21:32.950Z,15.52
2022-09-16T07:24:01.808Z,14.77
2022-09-16T07:26:32.096Z,15.63
2022-09-16T07:29:02.222Z,15.00
2022-09-16T07:31:32.508Z,16.25
2022-09-16T07:34:04.237Z,16.52
2022-09-16T07:36:38.287Z,15.60
2022-09-16T07:39:06.584Z,15.18
2022-09-16T07:41:39.778Z,16.05
2022-09-16T07:44:08.377Z,19.33
2022-09-16T07:46:36.946Z,16.25
2022-09-16T07:49:07.123Z,15.25
2022-09-16T07:51:34.676Z,16.02
2022-09-16T07:54:07.399Z,17.80
2022-09-16T07:56:37.235Z,12.82
2022-09-16T07:59:08.243Z,14.30
2022-09-16T08:01:37.854Z,12.48
2022-09-16T08:04:07.110Z,18.58
2022-09-16T08:06:38.359Z,16.27
2022-09-16T08:09:27.210Z,16.83
2022-09-16T08:11:52.656Z,15.80
2022-09-16T08:14:19.725Z,16.75
2022-09-16T08:16:47.017Z,13.93
2022-09-16T08:19:14.308Z,13.15
2022-09-16T08:21:41.353Z,15.38
2022-09-16T08:24:10.353Z,13.38
2022-09-16T08:26:37.446Z,13.20
2022-09-16T08:29:09.039Z,11.90
2022-09-16T08:31:37.972Z,13.27
2022-09-16T08:34:05.731Z,16.58
2022-09-16T08:36:33.959Z,15.55
2022-09-16T08:39:01.843Z,16.00
2022-09-16T08:42:02.632Z,13.57
2022-09-16T08:44:35.494Z,13.68
2022-09-16T08:47:06.818Z,13.07
2022-09-16T08:49:50.698Z,12.82
2022-09-16T08:52:37.001Z,12.95
2022-09-16T08:55:19.076Z,12.43
2022-09-16T08:57:57.028Z,14.60
2022-09-16T09:00:24.448Z,12.80
2022-09-16T09:03:01.523Z,12.82
2022-09-16T09:05:40.837Z,13.38
2022-09-16T09:08:21.478Z,11.43
2022-09-16T09:10:57.592Z,12.68
2022-09-16T09:13:37.070Z,12.40
2022-09-16T09:16:38.966Z,11.38
2022-09-16T09:19:18.488Z,11.98
2022-09-16T09:22:16.703Z,12.60
2022-09-16T09:24:56.958Z,12.85
2022-09-16T09:27:31.287Z,11.57
2022-09-16T09:30:25.568Z,12.15
2022-09-16T09:33:34.111Z,13.07
2022-09-16T09:36:19.521Z,11.85
2022-09-16T09:39:15.153Z,17.25
2022-09-16T09:42:05.235Z,14.18
2022-09-16T09:45:04.121Z,13.65
2022-09-16T09:47:55.297Z,14.13
2022-09-16T09:50:29.816Z,12.13
2022-09-16T09:53:20.562Z,12.57
2022-09-16T09:55:47.985Z,11.45
2022-09-16T09:58:41.247Z,12.65
2022-09-16T10:01:09.611Z,11.93
2022-09-16T10:03:38.134Z,11.23
2022-09-16T10:06:05.409Z,11.63
2022-09-16T10:08:44.864Z,12.30
2022-09-16T10:11:24.129Z,11.30
2022-09-16T10:14:02.478Z,13.38
2022-09-16T10:16:33.253Z,12.80
2022-09-16T10:19:41.048Z,12.10
2022-09-16T10:22:30.409Z,13.05
2022-09-16T10:25:08.050Z,14.25
2022-09-16T10:27:38.248Z,13.07
2022-09-16T10:30:19.135Z,13.07
2022-09-16T10:33:00.646Z,11.48
2022-09-16T10:35:30.309Z,12.93
2022-09-16T10:38:04.087Z,10.25
2022-09-16T10:40:32.142Z,11.13
2022-09-16T10:43:14.454Z,10.13
2022-09-16T10:45:49.541Z,14.10
2022-09-16T10:48:20.227Z,9.27
2022-09-16T10:50:58.436Z,7.85
2022-09-16T10:53:44.024Z,8.35
2022-09-16T10:56:20.770Z,9.27
2022-09-16T10:58:47.944Z,9.48
2022-09-16T11:01:27.546Z,9.38
2022-09-16T11:04:22.025Z,8.88
2022-09-16T11:07:07.989Z,9.73
2022-09-16T11:09:54.610Z,7.50
2022-09-16T11:12:51.182Z,9.55
2022-09-16T11:15:24.162Z,7.97
2022-09-16T11:18:10.820Z,7.68
2022-09-16T11:21:15.525Z,9.98
2022-09-16T11:24:21.525Z,7.40
2022-09-16T11:27:06.867Z,8.88
2022-09-16T11:29:55.840Z,12.52
2022-09-16T11:33:04.157Z,7.13
2022-09-16T11:38:22.885Z,7.13
2022-09-16T11:41:08.059Z,8.52
2022-09-16T11:44:01.856Z,8.32
2022-09-16T11:46:47.021Z,9.85
2022-09-16T11:49:51.275Z,14.50
2022-09-16T11:52:42.826Z,13.15
2022-09-16T11:55:26.515Z,8.38
2022-09-16T11:58:02.200Z,7.65
2022-09-16T12:00:34.083Z,11.13
2022-09-16T12:03:19.825Z,7.25
2022-09-16T12:05:53.789Z,6.93
2022-09-16T12:08:40.446Z,6.70
2022-09-16T12:11:36.850Z,7.03
2022-09-16T12:14:24.580Z,7.95
2022-09-16T12:16:59.269Z,8.98
2022-09-16T12:19:36.553Z,7.97
2022-09-16T12:22:27.820Z,8.07
2022-09-16T12:25:12.757Z,7.63
2022-09-16T12:27:55.803Z,6.78
2022-09-16T12:30:29.415Z,6.85
2022-09-16T12:33:03.011Z,8.00
2022-09-16T12:35:37.708Z,6.55
2022-09-16T12:38:05.540Z,6.95
2022-09-16T12:40:49.561Z,6.75
2022-09-16T12:43:54.847Z,10.50
2022-09-16T12:47:04.788Z,7.30
2022-09-16T12:49:46.844Z,7.65
2022-09-16T12:52:25.622Z,9.32
2022-09-16T12:55:26.756Z,10.77
2022-09-16T12:58:30.011Z,9.75
2022-09-16T13:01:24.804Z,10.75
2022-09-16T13:04:04.642Z,9.07
2022-09-16T13:06:36.704Z,10.57
2022-09-16T13:09:22.226Z,8.88
2022-09-16T13:14:56.641Z,11.05
2022-09-16T13:17:33.018Z,11.52
2022-09-16T13:20:20.338Z,11.20
2022-09-16T13:23:02.432Z,13.43
2022-09-16T13:25:50.809Z,11.80
2022-09-16T13:28:38.417Z,11.15
2022-09-16T13:31:11.453Z,11.90
2022-09-16T13:33:40.271Z,11.07
2022-09-16T13:36:31.636Z,10.20
2022-09-16T13:39:10.854Z,11.30
2022-09-16T13:41:42.461Z,12.98
2022-09-16T13:44:27.981Z,10.07
2022-09-16T13:46:55.128Z,9.50
2022-09-16T13:49:27.868Z,10.35
2022-09-16T13:51:55.353Z,11.57
2022-09-16T13:54:22.391Z,11.95
2022-09-16T13:57:24.161Z,10.68
2022-09-16T14:00:00.492Z,11.68
2022-09-16T14:02:40.410Z,11.07
2022-09-16T14:05:29.912Z,15.13
2022-09-16T14:08:07.264Z,11.30
2022-09-16T14:10:37.175Z,10.32
2022-09-16T14:13:11.337Z,10.95
2022-09-16T14:15:47.164Z,10.93
2022-09-16T14:18:20.641Z,11.10
2022-09-16T14:21:03.506Z,10.70
2022-09-16T14:23:33.206Z,10.23
2022-09-16T14:26:14.722Z,14.32
2022-09-16T14:28:42.144Z,13.43
2022-09-16T14:31:16.066Z,10.75
2022-09-16T14:33:56.527Z,10.60
2022-09-16T14:36:31.605Z,14.35
2022-09-16T14:39:12.503Z,13.70
2022-09-16T14:41:58.676Z,11.93
2022-09-16T14:44:37.543Z,12.15
2022-09-16T14:47:21.144Z,12.77
2022-09-16T14:50:24.475Z,12.85
2022-09-16T14:52:57.670Z,12.88
2022-09-16T14:55:31.668Z,10.00
2022-09-16T14:58:00.446Z,9.88
2022-09-16T15:00:39.598Z,11.75
2022-09-16T15:03:41.299Z,11.05
2022-09-16T15:06:15.556Z,9.45
2022-09-16T15:08:47.761Z,9.77
2022-09-16T15:11:47.046Z,9.95
2022-09-16T15:14:17.250Z,9.02
2022-09-16T15:16:49.076Z,9.75
2022-09-16T15:19:22.154Z,9.45
2022-09-16T15:21:50.976Z,10.90
2022-09-16T15:24:23.181Z,9.35
2022-09-16T15:26:50.887Z,9.50
2022-09-16T15:29:18.273Z,11.00
2022-09-16T15:31:46.707Z,9.75
2022-09-16T15:34:21.350Z,10.82
2022-09-16T15:36:54.079Z,12.05
2022-09-16T15:39:24.112Z,12.27
2022-09-16T15:42:12.805Z,11.07
2022-09-16T15:44:51.070Z,11.63
2022-09-16T15:47:35.113Z,11.48
2022-09-16T15:50:07.811Z,16.10
2022-09-16T15:52:55.710Z,11.95
2022-09-16T15:55:53.012Z,11.93
2022-09-16T15:58:34.371Z,10.95
2022-09-16T16:01:11.934Z,12.85
2022-09-16T16:03:57.740Z,11.35
2022-09-16T16:06:55.718Z,11.23
2022-09-16T16:12:00.056Z,12.77
2022-09-16T16:14:34.563Z,12.68
2022-09-16T16:17:13.803Z,12.32
2022-09-16T16:19:43.592Z,12.13
2022-09-16T16:22:11.528Z,11.05
2022-09-16T16:24:39.032Z,10.77
2022-09-16T16:27:08.574Z,12.55
2022-09-16T16:29:36.106Z,10.93
2022-09-16T16:32:08.164Z,12.02
2022-09-16T16:34:38.272Z,10.73
2022-09-16T16:37:07.284Z,9.90
2022-09-16T16:39:38.531Z,10.43
2022-09-16T16:42:06.478Z,9.82
2022-09-16T16:44:34.413Z,8.73
2022-09-16T16:47:02.252Z,10.10
2022-09-16T16:49:29.897Z,10.65
2022-09-16T16:51:58.078Z,10.85
2022-09-16T16:54:25.617Z,9.63
2022-09-16T16:56:54.010Z,9.90
2022-09-16T16:59:22.302Z,10.32
2022-09-16T17:01:52.766Z,13.15
2022-09-16T17:04:21.231Z,12.23
2022-09-16T17:07:02.635Z,10.65
2022-09-16T17:09:36.090Z,11.38
2022-09-16T17:12:04.645Z,11.80
2022-09-16T17:14:33.507Z,10.70
2022-09-16T17:17:07.165Z,12.20
2022-09-16T17:19:57.389Z,9.65
2022-09-16T17:22:27.034Z,10.75
2022-09-16T17:24:54.834Z,12.68
2022-09-16T17:27:25.153Z,12.77
2022-09-16T17:29:53.199Z,12.95
2022-09-16T17:32:20.766Z,12.55
2022-09-16T17:34:48.495Z,12.63
2022-09-16T17:37:17.294Z,12.43
2022-09-16T17:39:44.481Z,11.73
2022-09-16T17:42:12.279Z,12.77
2022-09-16T17:44:39.613Z,12.52
2022-09-16T17:47:06.968Z,12.35
2022-09-16T17:49:34.185Z,12.02
2022-09-16T17:52:01.735Z,11.40
2022-09-16T17:54:29.033Z,12.90
2022-09-16T17:56:58.776Z,12.43
2022-09-16T17:59:25.990Z,12.35
2022-09-16T18:01:53.710Z,12.45
2022-09-16T18:04:21.248Z,12.15
2022-09-16T18:06:52.061Z,10.65
2022-09-16T18:09:19.194Z,11.20
2022-09-16T18:11:46.954Z,11.68
2022-09-16T18:14:16.467Z,12.55
2022-09-16T18:16:46.047Z,12.57
2022-09-16T18:19:13.652Z,13.70
2022-09-16T18:21:40.811Z,13.52
2022-09-16T18:24:13.239Z,17.40
2022-09-16T18:26:43.909Z,13.95
2022-09-16T18:29:13.542Z,13.20
2022-09-16T18:31:44.888Z,14.02
2022-09-16T18:34:13.111Z,13.70
2022-09-16T18:36:40.831Z,12.95
2022-09-16T18:39:13.643Z,12.35
2022-09-16T18:41:42.644Z,12.07
2022-09-16T18:44:21.459Z,12.38
2022-09-16T18:46:48.800Z,11.80
2022-09-16T18:49:18.214Z,12.07
2022-09-16T18:51:51.308Z,11.70
2022-09-16T18:54:29.576Z,13.13
2022-09-16T18:56:59.186Z,12.75
2022-09-16T18:59:29.313Z,13.35
2022-09-16T19:01:58.967Z,13.00
2022-09-16T19:04:29.908Z,13.50
2022-09-16T19:07:06.114Z,12.93
2022-09-16T19:09:36.568Z,12.90
2022-09-16T19:12:04.332Z,13.45
2022-09-16T19:14:31.556Z,13.27
2022-09-16T19:16:59.431Z,12.32
2022-09-16T19:19:27.082Z,11.52
2022-09-16T19:21:54.575Z,12.98
2022-09-16T19:24:23.589Z,12.15
2022-09-16T19:26:54.445Z,12.32
2022-09-16T19:29:22.366Z,13.07
2022-09-16T19:31:52.818Z,12.65
2022-09-16T19:34:21.479Z,12.23
2022-09-16T19:36:49.441Z,13.13
2022-09-16T19:39:17.360Z,14.10
2022-09-16T19:41:45.294Z,14.15
2022-09-16T19:44:15.740Z,12.50
2022-09-16T19:46:44.927Z,14.73
2022-09-16T19:49:18.604Z,13.00
2022-09-16T19:51:46.144Z,12.38
2022-09-16T19:54:13.301Z,12.35
2022-09-16T19:56:40.477Z,13.23
2022-09-16T19:59:08.235Z,13.15
2022-09-16T20:01:36.741Z,13.00
2022-09-16T20:04:10.556Z,25.48
2022-09-16T20:06:40.041Z,15.43
2022-09-16T20:09:11.539Z,15.63
2022-09-16T20:11:44.701Z,13.63
2022-09-16T20:14:22.039Z,14.75
2022-09-16T20:16:50.665Z,14.05
2022-09-16T20:19:20.950Z,13.68
2022-09-16T20:21:48.022Z,13.90
2022-09-16T20:24:20.946Z,13.07
2022-09-16T20:26:49.847Z,12.93
2022-09-16T20:29:18.571Z,15.07
2022-09-16T20:31:47.238Z,13.70
2022-09-16T20:34:16.354Z,14.63
2022-09-16T20:36:44.954Z,14.60
2022-09-16T20:39:13.459Z,14.68
2022-09-16T20:41:41.590Z,14.40
2022-09-16T20:44:13.666Z,15.20
2022-09-16T20:46:40.658Z,14.57
2022-09-16T20:49:12.567Z,14.20
2022-09-16T20:51:39.525Z,13.82
2022-09-16T20:54:12.258Z,14.65
2022-09-16T20:56:41.082Z,13.27
2022-09-16T20:59:10.049Z,13.02
2022-09-16T21:01:38.899Z,13.68
2022-09-16T21:04:08.765Z,13.93
2022-09-16T21:06:36.759Z,13.55
2022-09-16T21:09:09.706Z,13.00
2022-09-16T21:11:38.070Z,12.80
2022-09-16T21:14:07.445Z,14.48
2022-09-16T21:16:36.728Z,13.52
2022-09-16T21:19:09.353Z,13.70
2022-09-16T21:21:39.193Z,13.88
2022-09-16T21:24:07.373Z,12.57
2022-09-16T21:26:36.682Z,12.38
2022-09-16T21:29:06.738Z,11.95
2022-09-16T21:31:34.332Z,14.27
2022-09-16T21:34:04.690Z,11.60
2022-09-16T21:36:31.912Z,11.30
2022-09-16T21:38:59.374Z,11.77
2022-09-16T21:41:26.810Z,12.18
2022-09-16T21:43:55.962Z,12.20
2022-09-16T21:46:28.561Z,12.60
2022-09-16T21:49:01.385Z,11.85
2022-09-16T21:51:35.433Z,12.07
2022-09-16T21:54:08.281Z,12.15
2022-09-16T21:56:40.652Z,12.93
2022-09-16T21:59:09.081Z,11.48
2022-09-16T22:01:37.075Z,12.00
2022-09-16T22:04:06.973Z,11.55
2022-09-16T22:06:34.290Z,11.90
2022-09-16T22:09:03.247Z,12.45
2022-09-16T22:11:32.703Z,12.45
2022-09-16T22:14:00.868Z,12.45
2022-09-16T22:16:30.723Z,11.63
2022-09-16T22:19:24.075Z,11.82
2022-09-16T22:21:51.649Z,11.32
2022-09-16T22:24:22.124Z,12.10
2022-09-16T22:26:51.317Z,15.27
2022-09-16T22:29:18.950Z,11.88
2022-09-16T22:31:46.269Z,12.82
2022-09-16T22:34:13.379Z,12.60
2022-09-16T22:36:40.598Z,11.70
2022-09-16T22:39:14.782Z,13.77
2022-09-16T22:41:43.152Z,11.85
2022-09-16T22:44:10.145Z,12.18
2022-09-16T22:46:46.384Z,11.40
2022-09-16T22:49:14.998Z,11.38
2022-09-16T22:51:59.525Z,12.27
2022-09-16T22:54:37.875Z,11.95
2022-09-16T22:57:04.902Z,12.18
2022-09-16T22:59:31.869Z,12.05
2022-09-16T23:02:02.055Z,11.63
2022-09-16T23:04:29.484Z,11.95
2022-09-16T23:06:56.575Z,11.68
2022-09-16T23:09:23.747Z,13.45
2022-09-16T23:11:50.854Z,12.05
2022-09-16T23:14:24.848Z,10.43
2022-09-16T23:16:53.879Z,9.95
2022-09-16T23:19:22.668Z,10.27
2022-09-16T23:21:52.750Z,10.77
2022-09-16T23:24:21.927Z,11.68
2022-09-16T23:26:49.378Z,12.07
2022-09-16T23:29:18.478Z,10.45
2022-09-16T23:31:45.826Z,9.57
2022-09-16T23:34:22.414Z,11.93
2022-09-16T23:36:49.887Z,10.57
2022-09-16T23:39:18.012Z,10.70
2022-09-16T23:41:45.761Z,11.10
2022-09-16T23:44:15.055Z,12.35
2022-09-16T23:46:42.591Z,11.43
2022-09-16T23:49:10.420Z,10.00
2022-09-16T23:51:37.744Z,10.43
2022-09-16T23:54:05.166Z,9.23
2022-09-16T23:56:32.821Z,10.88
2022-09-16T23:59:00.987Z,10.13
